Time;durP1;ratioP1;P1;durP2;ratioP2;P2;SDS_P1;SDS_P2;PMS_P1;PMS_P2;Temp;Humidity;BMP_temperature;BMP_pressure;BME280_temperature;BME280_humidity;BME280_pressure;Samples;Min_cycle;Max_cycle;Signal;HPM_P1;HPM_P2
2023/09/17 00:01:28;;;;;;;18.62;14.40;;;;;;;12.33;72.50;101717.34;1793503;79;21341;-58
2023/09/17 00:04:35;;;;;;;18.55;14.15;;;;;;;12.32;72.50;101706.52;1793789;80;21716;-57
2023/09/17 00:07:42;;;;;;;21.75;14.70;;;;;;;12.31;72.54;101714.38;1785718;79;21405;-57
2023/09/17 00:10:49;;;;;;;17.10;13.78;;;;;;;12.32;72.64;101718.88;1785414;79;21373;-56
2023/09/17 00:13:55;;;;;;;21.77;14.18;;;;;;;12.29;72.70;101720.03;1785538;79;21314;-58
2023/09/17 00:17:02;;;;;;;17.23;14.13;;;;;;;12.30;72.79;101721.78;1785619;80;21855;-58
2023/09/17 00:20:13;;;;;;;19.48;14.70;;;;;;;12.30;72.90;101725.90;1762533;80;21349;-58
2023/09/17 00:23:16;;;;;;;18.67;13.58;;;;;;;12.31;72.94;101727.61;1785505;79;21310;-58
2023/09/17 00:26:22;;;;;;;17.05;14.23;;;;;;;12.28;72.94;101723.80;1785497;79;21385;-58
2023/09/17 00:29:29;;;;;;;19.50;14.68;;;;;;;12.27;73.01;101723.96;1785248;79;21337;-58
2023/09/17 00:32:34;;;;;;;18.32;14.18;;;;;;;12.28;73.12;101722.43;1785535;79;21314;-59
2023/09/17 00:35:41;;;;;;;17.85;13.65;;;;;;;12.29;73.15;101724.68;1785545;79;21345;-56
2023/09/17 00:38:46;;;;;;;20.27;14.78;;;;;;;12.29;73.18;101717.28;1785479;79;21342;-58
2023/09/17 00:41:53;;;;;;;18.42;15.15;;;;;;;12.28;73.23;101722.43;1785476;79;21361;-57
2023/09/17 00:44:59;;;;;;;18.25;15.03;;;;;;;12.27;73.21;101722.09;1785497;79;21358;-57
2023/09/17 00:48:05;;;;;;;17.60;14.98;;;;;;;12.24;73.21;101729.23;1785528;80;21362;-56
2023/09/17 00:51:11;;;;;;;17.70;14.35;;;;;;;12.21;73.25;101721.30;1785568;79;21346;-56
2023/09/17 00:54:17;;;;;;;19.77;14.10;;;;;;;12.19;73.29;101719.75;1785599;79;21382;-56
2023/09/17 00:57:22;;;;;;;20.92;14.43;;;;;;;12.17;73.32;101719.03;1785435;80;21863;-57
2023/09/17 01:00:28;;;;;;;19.27;14.50;;;;;;;12.13;73.32;101714.34;1785514;80;21358;-56
2023/09/17 01:03:34;;;;;;;20.12;14.73;;;;;;;12.09;73.41;101714.31;1769053;79;21839;-57
2023/09/17 01:06:41;;;;;;;21.20;14.75;;;;;;;12.07;73.47;101711.37;1785501;79;21334;-57
2023/09/17 01:09:48;;;;;;;17.95;14.65;;;;;;;12.05;73.51;101715.62;1759528;80;21859;-57
2023/09/17 01:12:53;;;;;;;17.20;13.50;;;;;;;12.02;73.54;101711.81;1738718;81;21322;-57
2023/09/17 01:15:59;;;;;;;19.42;14.53;;;;;;;11.98;73.57;101711.27;1760903;80;21366;-57
2023/09/17 01:19:05;;;;;;;19.25;13.53;;;;;;;11.95;73.61;101714.83;1760909;81;21346;-57
2023/09/17 01:22:17;;;;;;;17.00;14.45;;;;;;;11.93;73.68;101717.73;1760894;80;21676;-57
2023/09/17 01:25:48;;;;;;;19.77;15.10;;;;;;;11.91;73.75;101711.52;1760901;80;21353;-56
2023/09/17 01:28:56;;;;;;;18.82;14.70;;;;;;;11.90;73.81;101711.17;1761102;81;21334;-57
2023/09/17 01:32:01;;;;;;;20.08;14.85;;;;;;;11.90;73.95;101710.30;1738402;81;21345;-57
2023/09/17 01:35:07;;;;;;;21.00;14.50;;;;;;;11.90;74.03;101706.18;1760957;80;21338;-57
2023/09/17 01:38:13;;;;;;;18.75;14.25;;;;;;;11.89;74.11;101703.09;1760908;81;21342;-57
2023/09/17 01:41:20;;;;;;;19.35;15.23;;;;;;;11.89;74.14;101707.20;1760871;81;21424;-57
2023/09/17 01:44:29;;;;;;;20.27;14.10;;;;;;;11.90;74.24;101700.19;1760904;80;21362;-57
2023/09/17 01:47:36;;;;;;;19.37;13.22;;;;;;;11.90;74.22;101704.31;1760926;80;21318;-58
2023/09/17 01:50:42;;;;;;;21.35;14.73;;;;;;;11.88;74.21;101697.23;1760881;80;21326;-57
2023/09/17 01:53:48;;;;;;;19.42;14.45;;;;;;;11.87;74.21;101702.38;1760910;80;21378;-57
2023/09/17 01:56:56;;;;;;;19.10;14.45;;;;;;;11.83;74.21;101702.30;1760834;81;21357;-57
2023/09/17 01:59:56;;;;;;;19.17;14.25;;;;;;;11.81;74.24;101704.36;1760854;80;21504;-57
2023/09/17 02:03:08;;;;;;;20.88;14.73;;;;;;;11.76;74.25;101706.19;1760929;81;21827;-57
2023/09/17 02:06:10;;;;;;;20.45;14.87;;;;;;;11.74;74.30;101706.84;1745589;81;21363;-56
2023/09/17 02:09:16;;;;;;;17.80;14.15;;;;;;;11.75;74.46;101703.56;1774171;79;21886;-58
2023/09/17 02:12:23;;;;;;;19.17;15.13;;;;;;;11.75;74.51;101704.94;1790449;80;21303;-57
2023/09/17 02:15:29;;;;;;;19.42;14.55;;;;;;;11.73;74.57;101699.60;1790247;80;21325;-57
2023/09/17 02:18:36;;;;;;;20.23;14.70;;;;;;;11.72;74.62;101697.89;1790363;80;21346;-57
2023/09/17 02:21:41;;;;;;;20.82;15.40;;;;;;;11.73;74.75;101691.90;1792264;79;21334;-57
2023/09/17 02:24:48;;;;;;;26.80;15.50;;;;;;;11.73;74.76;101694.64;1785553;79;21267;-58
2023/09/17 02:27:54;;;;;;;21.10;14.83;;;;;;;11.71;74.73;101702.16;1790372;79;21365;-59
2023/09/17 02:31:00;;;;;;;21.20;16.45;;;;;;;11.69;74.80;101694.08;1790439;79;21338;-58
2023/09/17 02:34:06;;;;;;;20.25;15.55;;;;;;;11.71;74.92;101700.28;1790925;79;21843;-58
2023/09/17 02:37:13;;;;;;;21.68;15.03;;;;;;;11.72;74.97;101698.38;1790999;80;21203;-58
2023/09/17 02:40:23;;;;;;;19.73;15.18;;;;;;;11.71;74.95;101711.75;1791041;79;21668;-57
2023/09/17 02:43:30;;;;;;;20.35;15.60;;;;;;;11.67;74.88;101704.86;1790686;78;21342;-59
2023/09/17 02:46:36;;;;;;;18.95;15.05;;;;;;;11.62;74.90;101703.88;1775719;80;21406;-58
2023/09/17 02:49:42;;;;;;;20.62;16.30;;;;;;;11.62;74.97;101703.88;1790606;80;21310;-57
2023/09/17 02:52:49;;;;;;;20.12;16.32;;;;;;;11.60;75.00;101707.80;1790533;79;21858;-58
2023/09/17 02:55:55;;;;;;;22.20;16.20;;;;;;;11.57;75.00;101701.25;1790505;79;21345;-57
2023/09/17 02:59:01;;;;;;;23.10;16.05;;;;;;;11.57;75.09;101704.86;1790583;79;21342;-58
2023/09/17 03:02:06;;;;;;;22.62;15.35;;;;;;;11.59;75.17;101712.41;1765311;80;21449;-56
2023/09/17 03:05:15;;;;;;;18.95;15.55;;;;;;;11.53;75.08;101708.90;1790259;79;21326;-56
2023/09/17 03:08:22;;;;;;;21.82;15.60;;;;;;;11.50;75.05;101713.81;1776258;79;21329;-57
2023/09/17 03:11:28;;;;;;;20.70;15.65;;;;;;;11.47;75.12;101711.37;1798312;78;21416;-57
2023/09/17 03:14:34;;;;;;;21.73;15.30;;;;;;;11.44;75.11;101711.67;1799716;80;21327;-57
2023/09/17 03:17:44;;;;;;;21.40;15.38;;;;;;;11.43;75.23;101713.54;1799768;80;21808;-58
2023/09/17 03:20:52;;;;;;;18.95;14.98;;;;;;;11.42;75.28;101720.55;1787833;79;21350;-58
2023/09/17 03:23:58;;;;;;;20.88;15.72;;;;;;;11.40;75.28;101718.48;1791088;79;21373;-58
2023/09/17 03:27:04;;;;;;;21.52;16.32;;;;;;;11.37;75.28;101714.67;1799741;80;21356;-57
2023/09/17 03:30:11;;;;;;;23.27;15.03;;;;;;;11.35;75.32;101724.91;1799784;80;21822;-58
2023/09/17 03:33:18;;;;;;;20.92;15.10;;;;;;;11.33;75.43;101716.84;1799724;80;21337;-58
2023/09/17 03:36:26;;;;;;;23.75;15.58;;;;;;;11.34;75.54;101719.92;1799750;79;21231;-58
2023/09/17 03:39:32;;;;;;;21.52;15.88;;;;;;;11.36;75.62;101726.62;1799919;79;21427;-59
2023/09/17 03:42:38;;;;;;;20.55;15.23;;;;;;;11.37;75.65;101718.25;1800051;79;21898;-58
2023/09/17 03:45:45;;;;;;;19.30;15.68;;;;;;;11.38;75.64;101723.24;1799653;78;21341;-58
2023/09/17 03:48:51;;;;;;;22.90;15.50;;;;;;;11.39;75.67;101722.22;1800036;79;21349;-57
2023/09/17 03:51:58;;;;;;;22.48;15.08;;;;;;;11.40;75.69;101715.74;1781369;79;21246;-58
2023/09/17 03:55:08;;;;;;;24.25;16.70;;;;;;;11.42;75.80;101713.69;1784003;79;21212;-58
2023/09/17 03:58:13;;;;;;;20.05;15.58;;;;;;;11.46;75.94;101725.61;1794952;79;21860;-58
2023/09/17 04:01:20;;;;;;;19.92;15.03;;;;;;;11.50;76.02;101724.28;1801171;78;21339;-58
2023/09/17 04:04:25;;;;;;;21.02;15.08;;;;;;;11.54;76.10;101725.70;1754267;79;21386;-58
2023/09/17 04:07:31;;;;;;;25.30;15.32;;;;;;;11.59;76.10;101734.87;1768336;80;21840;-58
2023/09/17 04:10:38;;;;;;;21.15;15.48;;;;;;;11.61;76.07;101741.05;1775101;79;21737;-58
2023/09/17 04:13:44;;;;;;;21.82;16.35;;;;;;;11.64;76.10;101744.91;1737827;82;21359;-58
2023/09/17 04:16:51;;;;;;;19.90;15.43;;;;;;;11.67;76.12;101739.98;1737802;81;21478;-57
2023/09/17 04:19:57;;;;;;;21.97;15.85;;;;;;;11.71;76.12;101740.56;1737815;81;21371;-59
2023/09/17 04:23:04;;;;;;;22.70;15.20;;;;;;;11.73;76.20;101742.66;1737858;82;21436;-57
2023/09/17 04:26:12;;;;;;;19.82;15.25;;;;;;;11.76;76.18;101739.61;1783602;79;21358;-58
2023/09/17 04:29:19;;;;;;;23.42;15.95;;;;;;;11.78;76.19;101743.08;1724308;81;21259;-58
2023/09/17 04:32:24;;;;;;;24.12;15.38;;;;;;;11.82;76.28;101745.86;1753855;82;21370;-58
2023/09/17 04:35:30;;;;;;;20.60;15.45;;;;;;;11.85;76.33;101745.06;1749705;80;21215;-58
2023/09/17 04:38:36;;;;;;;20.12;14.93;;;;;;;11.90;76.36;101752.83;1754232;82;21385;-58
2023/09/17 04:41:42;;;;;;;17.70;14.95;;;;;;;11.93;76.41;101753.40;1726301;82;21231;-57
2023/09/17 04:44:48;;;;;;;22.30;15.30;;;;;;;11.98;76.50;101755.19;1724509;82;21418;-58
2023/09/17 04:47:56;;;;;;;22.80;15.40;;;;;;;12.03;76.51;101756.94;1724443;83;21239;-57
2023/09/17 04:51:01;;;;;;;21.93;15.68;;;;;;;12.10;76.59;101759.11;1750321;80;21211;-58
2023/09/17 04:54:07;;;;;;;23.60;16.10;;;;;;;12.14;76.65;101764.13;1736513;82;21359;-58
2023/09/17 04:57:12;;;;;;;21.07;15.25;;;;;;;12.19;76.72;101768.66;1737188;82;21383;-58
2023/09/17 05:00:20;;;;;;;17.95;14.47;;;;;;;12.25;76.81;101765.30;1756894;81;21244;-56
2023/09/17 05:03:26;;;;;;;22.13;15.95;;;;;;;12.33;76.86;101763.16;1728141;83;21326;-57
2023/09/17 05:06:32;;;;;;;20.92;15.68;;;;;;;12.40;76.91;101763.75;1744752;81;21405;-57
2023/09/17 05:09:38;;;;;;;24.12;15.75;;;;;;;12.48;77.03;101766.59;1770841;79;21370;-57
2023/09/17 05:12:43;;;;;;;20.68;16.07;;;;;;;12.56;77.10;101763.94;1732806;80;21387;-57
2023/09/17 05:15:49;;;;;;;23.67;16.73;;;;;;;12.64;77.14;101767.27;1778300;79;21347;-59
2023/09/17 05:18:54;;;;;;;22.52;16.10;;;;;;;12.72;77.19;101766.86;1768647;79;21351;-57
2023/09/17 05:22:00;;;;;;;24.00;16.65;;;;;;;12.82;77.32;101769.54;1776686;80;21371;-58
2023/09/17 05:25:07;;;;;;;23.25;15.95;;;;;;;12.91;77.40;101776.33;1777421;80;21363;-57
2023/09/17 05:28:14;;;;;;;23.60;16.02;;;;;;;13.01;77.46;101778.54;1778231;79;21343;-57
2023/09/17 05:31:20;;;;;;;31.02;16.30;;;;;;;13.11;77.49;101768.83;1784243;78;21398;-57
2023/09/17 05:34:27;;;;;;;23.10;16.07;;;;;;;13.20;77.55;101779.74;1771994;79;21327;-57
2023/09/17 05:37:34;;;;;;;20.80;14.98;;;;;;;13.30;77.61;101781.87;1734789;81;21352;-59
2023/09/17 05:40:40;;;;;;;21.52;16.17;;;;;;;13.40;77.69;101777.15;1752177;80;21923;-58
2023/09/17 05:43:46;;;;;;;23.77;16.27;;;;;;;13.49;77.75;101778.92;1752318;82;21417;-58
2023/09/17 05:46:54;;;;;;;19.07;16.07;;;;;;;13.62;77.81;101784.54;1752311;80;21338;-58
2023/09/17 05:50:01;;;;;;;23.38;16.93;;;;;;;13.72;77.88;101782.02;1752332;80;21873;-58
2023/09/17 05:53:07;;;;;;;25.77;16.57;;;;;;;13.82;77.92;101781.91;1752329;82;21363;-58
2023/09/17 05:56:15;;;;;;;22.25;15.95;;;;;;;13.92;77.96;101778.54;1752285;80;21343;-58
2023/09/17 05:59:22;;;;;;;21.52;16.12;;;;;;;14.03;78.02;101774.12;1752263;82;21843;-57
2023/09/17 06:02:31;;;;;;;25.23;16.50;;;;;;;14.13;78.09;101778.47;1752383;82;21410;-59
2023/09/17 06:05:40;;;;;;;20.90;15.83;;;;;;;14.25;78.15;101780.45;1787761;79;21867;-57
2023/09/17 06:08:50;;;;;;;21.12;16.27;;;;;;;14.36;78.21;101786.54;1787844;79;21307;-58
2023/09/17 06:11:56;;;;;;;20.17;15.13;;;;;;;14.48;78.26;101782.95;1787714;79;21326;-58
2023/09/17 06:15:03;;;;;;;21.95;15.75;;;;;;;14.59;78.27;101784.02;1791659;78;21330;-58
2023/09/17 06:18:10;;;;;;;21.65;15.25;;;;;;;14.71;78.28;101786.83;1789294;79;21316;-59
2023/09/17 06:21:16;;;;;;;23.20;14.83;;;;;;;14.81;78.29;101784.76;1770895;79;21430;-57
2023/09/17 06:24:22;;;;;;;24.05;14.70;;;;;;;14.92;78.30;101784.47;1768355;80;21355;-58
2023/09/17 06:27:34;;;;;;;19.75;13.98;;;;;;;15.03;78.31;101785.52;1758875;80;21308;-58
2023/09/17 06:30:42;;;;;;;22.30;14.70;;;;;;;15.14;78.33;101790.70;1758065;80;21350;-58
2023/09/17 06:33:48;;;;;;;19.95;14.63;;;;;;;15.26;78.33;101785.17;1776758;79;21339;-60
2023/09/17 06:36:55;;;;;;;23.75;15.40;;;;;;;15.37;78.35;101786.21;1770574;79;21368;-59
2023/09/17 06:40:03;;;;;;;15.70;13.72;;;;;;;15.46;78.33;101785.20;1772808;79;21324;-59
2023/09/17 06:43:09;;;;;;;19.77;14.70;;;;;;;15.55;78.32;101777.78;1768345;80;21339;-59
2023/09/17 06:46:14;;;;;;;18.87;14.15;;;;;;;15.66;78.32;101778.80;1749462;80;21344;-58
2023/09/17 06:49:23;;;;;;;20.68;14.60;;;;;;;15.75;78.36;101774.47;1768412;80;21351;-58
2023/09/17 06:52:29;;;;;;;21.97;14.70;;;;;;;15.85;78.35;101774.28;1752160;80;21228;-59
2023/09/17 06:55:35;;;;;;;19.07;13.43;;;;;;;15.96;78.35;101776.16;1768195;80;21887;-58
2023/09/17 06:58:47;;;;;;;18.50;14.07;;;;;;;16.07;78.39;101772.14;1768850;80;21340;-59
2023/09/17 07:01:51;;;;;;;21.55;13.55;;;;;;;16.19;78.43;101778.48;1767422;80;21375;-58
2023/09/17 07:05:00;;;;;;;22.05;13.45;;;;;;;16.33;78.54;101788.80;1767640;80;21355;-58
2023/09/17 07:08:06;;;;;;;18.70;14.10;;;;;;;16.43;78.57;101785.30;1767164;80;21332;-58
2023/09/17 07:11:12;;;;;;;17.15;13.32;;;;;;;16.55;78.55;101772.50;1762224;81;21924;-58
2023/09/17 07:14:19;;;;;;;16.40;13.32;;;;;;;16.65;78.51;101781.44;1767392;79;21475;-58
2023/09/17 07:17:26;;;;;;;21.73;13.22;;;;;;;16.74;78.46;101777.58;1798419;79;21448;-57
2023/09/17 07:20:33;;;;;;;18.20;12.80;;;;;;;16.83;78.43;101780.11;1762335;80;21204;-57
2023/09/17 07:23:42;;;;;;;21.07;14.03;;;;;;;16.94;78.42;101777.44;1767719;80;22025;-58
2023/09/17 07:26:48;;;;;;;17.77;13.62;;;;;;;17.05;78.41;101779.27;1767484;80;21382;-58
2023/09/17 07:29:54;;;;;;;15.00;12.15;;;;;;;17.14;78.40;101775.39;1772020;79;21332;-58
2023/09/17 07:32:59;;;;;;;20.43;12.73;;;;;;;17.25;78.41;101770.80;1770500;80;21366;-58
2023/09/17 07:36:06;;;;;;;18.35;11.57;;;;;;;17.36;78.39;101777.28;1696504;82;21196;-59
2023/09/17 07:39:12;;;;;;;18.07;12.07;;;;;;;17.49;78.39;101779.48;1733191;81;21858;-58
2023/09/17 07:42:16;;;;;;;15.08;11.55;;;;;;;17.59;78.31;101777.29;1747054;80;21169;-59
2023/09/17 07:45:22;;;;;;;16.55;11.18;;;;;;;17.68;78.26;101776.16;1785855;78;21463;-58
2023/09/17 07:48:29;;;;;;;15.38;11.78;;;;;;;17.80;78.24;101776.05;1768898;80;21354;-59
2023/09/17 07:51:34;;;;;;;14.90;10.72;;;;;;;17.88;78.16;101775.45;1746593;80;22030;-59
2023/09/17 07:54:48;;;;;;;15.63;11.63;;;;;;;18.00;78.13;101774.98;1761176;81;21347;-59
2023/09/17 07:57:54;;;;;;;17.82;11.25;;;;;;;18.11;78.11;101768.42;1785504;80;21260;-60
2023/09/17 08:01:02;;;;;;;14.07;11.12;;;;;;;18.23;78.10;101766.91;1806502;78;21355;-58
2023/09/17 08:04:09;;;;;;;14.47;10.70;;;;;;;18.33;78.03;101763.30;1751580;80;21362;-58
2023/09/17 08:07:16;;;;;;;14.53;10.78;;;;;;;18.42;77.96;101762.19;1767303;80;21395;-60
2023/09/17 08:10:22;;;;;;;11.18;9.15;;;;;;;18.53;77.90;101757.53;1743355;81;21266;-59
2023/09/17 08:13:28;;;;;;;17.23;9.93;;;;;;;18.63;77.80;101764.16;1763747;80;21199;-60
2023/09/17 08:16:35;;;;;;;12.33;9.30;;;;;;;18.74;77.76;101758.11;1732997;80;21407;-60
2023/09/17 08:19:42;;;;;;;13.93;9.68;;;;;;;18.86;77.70;101758.78;1776873;79;21847;-60
2023/09/17 08:22:49;;;;;;;11.95;8.90;;;;;;;18.94;77.57;101757.28;1770698;80;21401;-61
2023/09/17 08:25:55;;;;;;;10.55;8.50;;;;;;;19.02;77.40;101753.51;1766592;81;21914;-59
2023/09/17 08:29:05;;;;;;;10.72;7.62;;;;;;;19.10;77.27;101757.03;1764555;79;21200;-58
2023/09/17 08:32:13;;;;;;;9.38;8.13;;;;;;;19.17;77.15;101748.22;1718782;83;21320;-60
2023/09/17 08:35:19;;;;;;;12.13;8.18;;;;;;;19.26;77.06;101742.88;1707998;82;21769;-61
2023/09/17 08:38:24;;;;;;;15.08;7.62;;;;;;;19.38;76.95;101746.55;1708164;83;21201;-60
2023/09/17 08:41:33;;;;;;;10.85;8.28;;;;;;;19.46;76.79;101751.92;1707478;84;21232;-63
2023/09/17 08:44:39;;;;;;;10.95;7.60;;;;;;;19.54;76.60;101750.39;1707178;84;21241;-61
2023/09/17 08:47:45;;;;;;;9.38;6.37;;;;;;;19.64;76.51;101737.89;1707859;84;21212;-62
2023/09/17 08:50:57;;;;;;;11.35;6.40;;;;;;;19.77;76.44;101746.34;1718287;82;21466;-62
2023/09/17 08:54:19;;;;;;;9.98;5.85;;;;;;;19.89;76.32;101748.00;1725865;83;21330;-61
2023/09/17 08:57:28;;;;;;;7.55;6.45;;;;;;;20.03;76.15;101745.63;1729242;80;21410;-60
2023/09/17 09:00:33;;;;;;;8.65;6.03;;;;;;;20.20;76.00;101742.91;1755717;81;21347;-64
2023/09/17 09:03:41;;;;;;;10.38;6.67;;;;;;;20.35;75.77;101740.83;1755498;80;21229;-60
2023/09/17 09:06:48;;;;;;;11.45;6.60;;;;;;;20.52;75.61;101747.75;1755994;80;21366;-60
2023/09/17 09:09:54;;;;;;;11.53;6.62;;;;;;;20.72;75.52;101744.53;1739671;81;21460;-61
2023/09/17 09:13:01;;;;;;;8.83;5.95;;;;;;;20.92;75.28;101740.39;1748459;81;21362;-62
2023/09/17 09:16:08;;;;;;;12.35;6.55;;;;;;;21.14;75.04;101734.48;1739710;81;21745;-60
2023/09/17 09:19:13;;;;;;;9.10;6.05;;;;;;;21.38;74.81;101733.88;1682913;83;21314;-63
2023/09/17 09:22:19;;;;;;;8.70;6.25;;;;;;;21.60;74.50;101731.72;1734720;82;21330;-63
2023/09/17 09:25:30;;;;;;;9.98;5.97;;;;;;;21.80;74.11;101734.84;1746310;80;21322;-57
2023/09/17 09:28:40;;;;;;;9.30;5.62;;;;;;;21.99;73.72;101728.94;1776621;80;21203;-62
2023/09/17 09:31:48;;;;;;;7.87;5.37;;;;;;;22.19;73.40;101724.16;1767871;79;21393;-62
2023/09/17 09:34:55;;;;;;;10.38;5.87;;;;;;;22.38;73.08;101724.63;1776224;80;21735;-62
2023/09/17 09:38:01;;;;;;;9.28;5.58;;;;;;;22.50;72.66;101724.24;1758769;81;21326;-61
2023/09/17 09:41:08;;;;;;;7.15;5.22;;;;;;;22.64;72.38;101725.09;1772929;81;21353;-64
2023/09/17 09:44:16;;;;;;;7.05;4.65;;;;;;;22.70;71.89;101729.78;1752715;80;22018;-61
2023/09/17 09:47:22;;;;;;;6.00;5.12;;;;;;;22.67;71.42;101726.05;1776746;80;21223;-61
2023/09/17 09:50:33;;;;;;;8.05;5.25;;;;;;;22.66;71.13;101727.12;1761625;79;21898;-62
2023/09/17 09:53:39;;;;;;;6.05;4.60;;;;;;;22.62;70.85;101720.27;1786694;79;21326;-63
2023/09/17 09:56:50;;;;;;;7.10;5.50;;;;;;;22.56;70.66;101718.36;1793505;79;21385;-63
2023/09/17 10:00:10;;;;;;;9.05;5.35;;;;;;;22.48;70.32;101721.37;1787861;79;21238;-60
2023/09/17 10:03:09;;;;;;;9.88;6.15;;;;;;;22.31;69.91;101727.12;1779254;79;21214;-62
2023/09/17 10:06:15;;;;;;;7.35;4.70;;;;;;;22.18;69.66;101723.29;1771644;78;21196;-61
2023/09/17 10:09:21;;;;;;;7.30;4.83;;;;;;;22.11;69.52;101726.66;1778074;79;21334;-60
2023/09/17 10:12:27;;;;;;;6.55;4.70;;;;;;;22.14;69.46;101726.73;1777617;79;21883;-59
2023/09/17 10:15:34;;;;;;;6.25;4.40;;;;;;;22.20;69.25;101722.54;1770116;79;21179;-62
2023/09/17 10:18:42;;;;;;;5.67;3.92;;;;;;;22.25;68.86;101716.86;1789084;79;21841;-60
2023/09/17 10:21:49;;;;;;;8.48;3.75;;;;;;;22.16;68.39;101723.20;1771192;79;21713;-62
2023/09/17 10:24:55;;;;;;;7.70;4.03;;;;;;;22.03;68.00;101720.44;1792635;79;21264;-62
2023/09/17 10:28:00;;;;;;;8.20;4.85;;;;;;;21.97;67.78;101722.19;1801455;79;21777;-59
2023/09/17 10:31:07;;;;;;;13.40;5.12;;;;;;;21.91;67.46;101720.24;1802747;79;21354;-61
2023/09/17 10:34:13;;;;;;;8.30;4.80;;;;;;;21.87;67.35;101713.92;1802669;79;21351;-61
2023/09/17 10:37:19;;;;;;;6.30;4.12;;;;;;;21.92;67.13;101717.79;1802320;79;21339;-61
2023/09/17 10:40:25;;;;;;;5.75;4.30;;;;;;;21.88;66.76;101711.48;1785187;78;21212;-60
2023/09/17 10:43:29;;;;;;;6.45;4.15;;;;;;;21.90;66.58;101717.14;1772582;80;21394;-60
2023/09/17 10:46:38;;;;;;;7.37;4.83;;;;;;;21.86;66.27;101715.02;1772559;79;21247;-62
2023/09/17 10:49:47;;;;;;;6.17;4.42;;;;;;;21.77;65.87;101718.55;1772502;79;21891;-63
2023/09/17 10:52:52;;;;;;;6.10;4.35;;;;;;;21.69;65.50;101713.72;1772498;81;21366;-61
2023/09/17 10:56:16;;;;;;;12.18;4.35;;;;;;;21.61;65.18;101709.20;1739932;81;21304;-63
2023/09/17 10:59:22;;;;;;;7.67;4.60;;;;;;;21.57;64.95;101707.06;1738362;82;21876;-62
2023/09/17 11:02:29;;;;;;;7.12;4.70;;;;;;;21.55;64.74;101705.05;1739737;82;21216;-60
2023/09/17 11:05:37;;;;;;;8.15;5.25;;;;;;;21.56;64.54;101704.84;1714498;82;21391;-61
2023/09/17 11:08:43;;;;;;;5.25;4.25;;;;;;;21.57;64.27;101700.97;1756901;81;21195;-61
2023/09/17 11:11:48;;;;;;;5.72;3.85;;;;;;;21.62;64.13;101701.70;1738360;81;21354;-61
2023/09/17 11:14:54;;;;;;;8.10;4.20;;;;;;;21.78;63.97;101706.34;1738847;81;21370;-62
2023/09/17 11:18:07;;;;;;;11.70;4.72;;;;;;;21.86;63.65;101698.28;1737378;82;21756;-62
2023/09/17 11:21:14;;;;;;;6.12;4.22;;;;;;;21.90;63.42;101699.02;1777988;79;21362;-63
2023/09/17 11:24:23;;;;;;;6.92;3.62;;;;;;;22.11;63.40;101688.99;1774006;80;21335;-64
2023/09/17 11:27:28;;;;;;;6.60;3.90;;;;;;;22.39;63.24;101686.42;1752374;82;21367;-63
2023/09/17 11:30:34;;;;;;;7.03;3.80;;;;;;;22.66;63.00;101689.44;1744554;82;21367;-65
2023/09/17 11:33:39;;;;;;;6.70;4.47;;;;;;;22.89;62.71;101679.94;1742553;82;21227;-62
2023/09/17 11:36:46;;;;;;;6.10;4.10;;;;;;;23.11;62.37;101674.30;1723934;82;21461;-62
2023/09/17 11:40:00;;;;;;;7.05;4.33;;;;;;;23.30;62.02;101671.92;1743008;82;21347;-63
2023/09/17 11:43:07;;;;;;;5.12;3.85;;;;;;;23.45;61.80;101662.11;1743041;80;21355;-60
2023/09/17 11:46:13;;;;;;;8.00;3.90;;;;;;;23.61;61.51;101668.52;1713751;82;21224;-60
2023/09/17 11:49:22;;;;;;;5.60;4.20;;;;;;;23.73;61.02;101663.56;1714297;83;21386;-62
2023/09/17 11:52:30;;;;;;;7.35;4.15;;;;;;;23.82;60.65;101652.41;1714367;83;21757;-60
2023/09/17 11:55:36;;;;;;;6.05;3.90;;;;;;;23.94;60.34;101659.80;1714389;83;21479;-61
2023/09/17 11:58:43;;;;;;;5.40;3.87;;;;;;;24.07;60.11;101658.25;1714727;83;21335;-61
2023/09/17 12:02:00;;;;;;;9.08;4.03;;;;;;;24.19;59.82;101649.94;1714784;83;21442;-61
2023/09/17 12:05:07;;;;;;;7.28;4.05;;;;;;;24.32;59.43;101653.98;1726033;81;21209;-62
2023/09/17 12:08:13;;;;;;;9.10;3.98;;;;;;;24.40;58.99;101647.52;1728280;83;21309;-63
2023/09/17 12:11:26;;;;;;;5.45;3.83;;;;;;;24.45;58.50;101641.22;1728205;81;21264;-64
2023/09/17 12:14:33;;;;;;;6.60;3.90;;;;;;;24.48;58.01;101642.14;1715445;82;21228;-63
2023/09/17 12:17:43;;;;;;;6.30;4.22;;;;;;;24.49;57.63;101643.30;1734951;82;21414;-61
2023/09/17 12:21:02;;;;;;;5.35;4.03;;;;;;;24.48;57.20;101633.17;1755993;80;21705;-62
2023/09/17 12:24:11;;;;;;;7.22;3.92;;;;;;;24.51;57.00;101628.52;1755252;81;21350;-61
2023/09/17 12:30:42;;;;;;;5.78;4.45;;;;;;;24.49;56.21;101636.30;1716522;82;21405;-62
2023/09/17 12:33:47;;;;;;;7.80;4.58;;;;;;;24.36;55.63;101633.67;1708413;84;21386;-64
2023/09/17 12:36:55;;;;;;;6.10;4.33;;;;;;;24.18;55.12;101626.69;1708548;82;21386;-61
2023/09/17 12:40:07;;;;;;;6.20;4.28;;;;;;;24.09;54.91;101627.23;1708516;82;21757;-59
2023/09/17 12:43:12;;;;;;;7.22;4.72;;;;;;;24.06;54.68;101621.58;1770430;80;21208;-61
2023/09/17 12:46:19;;;;;;;5.97;4.42;;;;;;;24.00;54.37;101618.32;1737136;81;21725;-63
2023/09/17 12:49:27;;;;;;;5.22;3.80;;;;;;;23.99;54.18;101612.39;1736953;82;21194;-60
2023/09/17 12:52:34;;;;;;;6.25;4.83;;;;;;;23.99;53.95;101615.19;1773757;80;21338;-60
2023/09/17 12:55:41;;;;;;;6.35;4.80;;;;;;;23.99;53.67;101618.56;1752093;80;21271;-60
2023/09/17 12:58:46;;;;;;;8.80;4.72;;;;;;;23.86;53.24;101608.34;1765494;80;21378;-61
2023/09/17 13:02:00;;;;;;;6.83;4.80;;;;;;;23.83;53.12;101611.61;1737491;81;21706;-63
2023/09/17 13:05:07;;;;;;;6.60;4.67;;;;;;;23.80;52.81;101610.66;1737358;81;21339;-59
2023/09/17 13:08:16;;;;;;;7.40;4.60;;;;;;;23.73;52.51;101606.23;1739103;81;21454;-60
2023/09/17 13:11:24;;;;;;;8.18;4.53;;;;;;;23.62;52.21;101609.27;1741354;81;21394;-62
2023/09/17 13:14:32;;;;;;;11.60;4.85;;;;;;;23.50;52.07;101609.69;1738691;81;21359;-63
2023/09/17 13:17:39;;;;;;;15.20;4.97;;;;;;;23.42;51.84;101612.25;1737359;81;21367;-59
2023/09/17 13:20:46;;;;;;;5.72;4.40;;;;;;;23.35;51.60;101609.21;1738173;81;21351;-61
2023/09/17 13:23:52;;;;;;;8.43;5.33;;;;;;;23.28;51.38;101604.22;1696969;83;21225;-62
2023/09/17 13:27:00;;;;;;;7.67;4.50;;;;;;;23.20;51.25;101600.27;1690175;84;21274;-61
2023/09/17 13:30:06;;;;;;;7.62;4.90;;;;;;;23.10;51.10;101598.56;1725175;82;21233;-63
2023/09/17 13:33:17;;;;;;;11.65;4.50;;;;;;;22.99;50.97;101601.53;1675329;85;21944;-62
2023/09/17 13:36:20;;;;;;;7.72;4.42;;;;;;;22.92;50.86;101610.52;1704335;82;21910;-62
2023/09/17 13:39:27;;;;;;;7.20;4.58;;;;;;;22.83;50.68;101597.93;1682070;83;21209;-62
2023/09/17 13:42:31;;;;;;;9.00;4.30;;;;;;;22.74;50.55;101604.02;1716871;83;21293;-62
2023/09/17 13:45:38;;;;;;;7.35;4.53;;;;;;;22.69;50.41;101600.47;1702550;83;21279;-62
2023/09/17 13:48:44;;;;;;;7.47;4.62;;;;;;;22.70;50.32;101604.13;1703223;83;21224;-62
2023/09/17 13:51:51;;;;;;;6.72;4.65;;;;;;;22.67;50.21;101597.61;1732723;82;21220;-61
2023/09/17 13:54:57;;;;;;;9.33;4.65;;;;;;;22.65;50.15;101589.98;1743186;81;21446;-62
2023/09/17 13:58:03;;;;;;;9.13;4.83;;;;;;;22.63;50.08;101591.61;1735947;82;21259;-62
2023/09/17 14:01:12;;;;;;;6.37;4.70;;;;;;;22.67;50.10;101585.91;1744298;81;21449;-62
2023/09/17 14:04:17;;;;;;;6.95;4.62;;;;;;;22.72;49.98;101593.60;1744345;82;21382;-64
2023/09/17 14:07:23;;;;;;;10.93;5.10;;;;;;;22.75;49.82;101591.75;1745640;81;21255;-62
2023/09/17 14:10:29;;;;;;;8.95;5.03;;;;;;;22.76;49.71;101597.64;1743820;81;21461;-59
2023/09/17 14:13:36;;;;;;;7.97;4.80;;;;;;;22.76;49.63;101593.45;1744228;82;21390;-62
2023/09/17 14:16:44;;;;;;;8.13;5.03;;;;;;;22.73;49.47;101589.72;1744438;81;21364;-59
2023/09/17 14:19:44;;;;;;;6.53;5.50;;;;;;;22.69;49.39;101588.47;1745098;81;21358;-61